Time,TemperatureF,DewpointF,PressureIn,WindDirection,WindDirectionDegrees,WindSpeedMPH,WindSpeedGustMPH,Humidity,HourlyPrecipIn,Conditions,Clouds,dailyrainin,SoftwareType,DateUTC
2013-01-22 00:00:00,0.0,-15.3,29.81,West,270,0.0,2.2,48,0.00,,,0.00,WUHU21623XXSP,2013-01-22 05:00:00,
2013-01-22 00:01:00,0.0,-15.3,29.81,West,270,0.0,2.2,48,0.00,,,0.00,WUHU21623XXSP,2013-01-22 05:01:00,
2013-01-22 00:06:00,0.0,-15.3,29.81,West,270,0.0,0.0,48,0.00,,,0.00,WUHU21623XXSP,2013-01-22 05:06:00,
2013-01-22 00:11:00,-0.2,-15.5,29.81,WNW,292,1.8,1.8,48,0.00,,,0.00,WUHU21623XXSP,2013-01-22 05:11:00,
2013-01-22 00:16:00,-0.2,-15.5,29.81,WNW,292,1.3,4.5,48,0.00,,,0.00,WUHU21623XXSP,2013-01-22 05:16:00,
2013-01-22 00:21:00,-0.2,-15.5,29.81,WSW,247,4.3,4.5,48,0.00,,,0.00,WUHU21623XXSP,2013-01-22 05:21:00,
2013-01-22 00:26:00,-0.2,-15.5,29.81,West,270,1.3,4.3,48,0.00,,,0.00,WUHU21623XXSP,2013-01-22 05:26:00,
2013-01-22 00:31:00,-0.2,-15.5,29.81,West,270,0.0,2.2,48,0.00,,,0.00,WUHU21623XXSP,2013-01-22 05:31:00,
2013-01-22 00:36:00,-0.4,-15.7,29.81,West,270,0.0,0.0,48,0.00,,,0.00,WUHU21623XXSP,2013-01-22 05:36:00,
2013-01-22 00:41:00,-0.4,-15.7,29.81,West,270,0.0,0.0,48,0.00,,,0.00,WUHU21623XXSP,2013-01-22 05:41:00,
2013-01-22 00:46:00,-0.4,-15.7,29.81,NW,315,0.0,2.7,48,0.00,,,0.00,WUHU21623XXSP,2013-01-22 05:46:00,
2013-01-22 00:51:00,-0.8,-16.1,29.81,WNW,292,0.0,2.7,48,0.00,,,0.00,WUHU21623XXSP,2013-01-22 05:51:00,
2013-01-22 00:56:00,-0.8,-16.1,29.81,West,270,0.0,1.1,48,0.00,,,0.00,WUHU21623XXSP,2013-01-22 05:56:00,
2013-01-22 01:01:00,-0.8,-16.1,29.81,WNW,292,4.3,4.3,48,0.00,,,0.00,WUHU21623XXSP,2013-01-22 06:01:00,
2013-01-22 01:06:00,-0.8,-16.1,29.81,WNW,292,1.6,4.3,48,0.00,,,0.00,WUHU21623XXSP,2013-01-22 06:06:00,
2013-01-22 01:11:00,-0.9,-16.2,29.81,WNW,292,0.0,1.6,48,0.00,,,0.00,WUHU21623XXSP,2013-01-22 06:11:00,
2013-01-22 01:16:00,-0.9,-16.2,29.82,West,270,0.0,2.7,48,0.00,,,0.00,WUHU21623XXSP,2013-01-22 06:16:00,
2013-01-22 01:21:00,-0.8,-16.1,29.82,WNW,292,3.6,3.6,48,0.00,,,0.00,WUHU21623XXSP,2013-01-22 06:21:00,
2013-01-22 01:26:00,-0.9,-16.2,29.82,West,270,2.7,3.6,48,0.00,,,0.00,WUHU21623XXSP,2013-01-22 06:26:00,
2013-01-22 01:31:00,-0.9,-16.2,29.82,WNW,292,0.0,4.3,48,0.00,,,0.00,WUHU21623XXSP,2013-01-22 06:31:00,
2013-01-22 01:36:00,-0.9,-16.2,29.82,West,270,0.0,4.3,48,0.00,,,0.00,WUHU21623XXSP,2013-01-22 06:36:00,
2013-01-22 01:41:00,-1.1,-16.3,29.82,West,270,0.0,1.8,48,0.00,,,0.00,WUHU21623XXSP,2013-01-22 06:41:00,
2013-01-22 01:46:00,-1.3,-16.5,29.82,NW,315,0.0,2.2,48,0.00,,,0.00,WUHU21623XXSP,2013-01-22 06:46:00,
2013-01-22 01:51:00,-1.3,-16.5,29.82,WNW,292,0.0,2.5,48,0.00,,,0.00,WUHU21623XXSP,2013-01-22 06:51:00,
2013-01-22 01:56:00,-1.3,-16.5,29.82,NW,315,0.0,3.8,48,0.00,,,0.00,WUHU21623XXSP,2013-01-22 06:56:00,
2013-01-22 02:01:00,-1.3,-16.5,29.83,West,270,0.0,3.8,48,0.00,,,0.00,WUHU21623XXSP,2013-01-22 07:01:00,
2013-01-22 02:06:00,-1.3,-16.5,29.83,West,270,0.0,1.3,48,0.00,,,0.00,WUHU21623XXSP,2013-01-22 07:06:00,
2013-01-22 02:12:00,-1.3,-16.5,29.83,West,270,2.5,2.5,48,0.00,,,0.00,WUHU21623XXSP,2013-01-22 07:12:00,
2013-01-22 02:17:00,-1.3,-16.5,29.83,WNW,292,1.6,2.5,48,0.00,,,0.00,WUHU21623XXSP,2013-01-22 07:17:00,
2013-01-22 02:22:00,-1.3,-16.5,29.83,West,270,1.1,1.6,48,0.00,,,0.00,WUHU21623XXSP,2013-01-22 07:22:00,
2013-01-22 02:27:00,-1.3,-16.5,29.83,WNW,292,0.0,1.1,48,0.00,,,0.00,WUHU21623XXSP,2013-01-22 07:27:00,
2013-01-22 02:32:00,-1.3,-16.5,29.83,WNW,292,0.7,1.8,48,0.00,,,0.00,WUHU21623XXSP,2013-01-22 07:32:00,
2013-01-22 02:37:00,-1.5,-16.7,29.84,WNW,292,0.0,1.8,48,0.00,,,0.00,WUHU21623XXSP,2013-01-22 07:37:00,
2013-01-22 02:42:00,-1.3,-16.5,29.84,NW,315,1.3,1.3,48,0.00,,,0.00,WUHU21623XXSP,2013-01-22 07:42:00,
2013-01-22 02:47:00,-1.3,-16.5,29.84,North,0,0.0,1.3,48,0.00,,,0.00,WUHU21623XXSP,2013-01-22 07:47:00,
2013-01-22 02:52:00,-1.3,-16.5,29.84,NNW,337,0.0,0.0,48,0.00,,,0.00,WUHU21623XXSP,2013-01-22 07:52:00,
2013-01-22 02:57:00,-1.3,-16.5,29.84,WNW,292,1.6,1.6,48,0.00,,,0.00,WUHU21623XXSP,2013-01-22 07:57:00,
2013-01-22 03:02:00,-1.3,-16.5,29.85,NNW,337,2.9,2.9,48,0.00,,,0.00,WUHU21623XXSP,2013-01-22 08:02:00,
2013-01-22 03:07:00,-1.3,-16.5,29.85,NW,315,1.6,2.9,48,0.00,,,0.00,WUHU21623XXSP,2013-01-22 08:07:00,
2013-01-22 03:12:00,-1.5,-16.7,29.85,SW,225,4.9,5.6,48,0.00,,,0.00,WUHU21623XXSP,2013-01-22 08:12:00,
2013-01-22 03:17:00,-1.5,-16.7,29.85,NNW,337,7.8,7.8,48,0.00,,,0.00,WUHU21623XXSP,2013-01-22 08:17:00,
2013-01-22 03:22:00,-1.7,-16.9,29.85,North,0,2.9,7.8,48,0.00,,,0.00,WUHU21623XXSP,2013-01-22 08:22:00,
2013-01-22 03:27:00,-1.8,-17.0,29.85,WNW,292,2.2,4.9,48,0.00,,,0.00,WUHU21623XXSP,2013-01-22 08:27:00,
2013-01-22 03:32:00,-2.0,-17.2,29.85,WNW,292,1.6,4.9,48,0.00,,,0.00,WUHU21623XXSP,2013-01-22 08:32:00,
2013-01-22 03:37:00,-2.0,-17.2,29.85,WNW,292,1.8,4.3,48,0.00,,,0.00,WUHU21623XXSP,2013-01-22 08:37:00,
2013-01-22 03:42:00,-2.2,-17.4,29.86,WNW,292,0.0,4.3,48,0.00,,,0.00,WUHU21623XXSP,2013-01-22 08:42:00,
2013-01-22 03:47:00,-2.4,-17.5,29.86,NNW,337,0.0,2.9,48,0.00,,,0.00,WUHU21623XXSP,2013-01-22 08:47:00,
2013-01-22 03:52:00,-2.4,-17.5,29.87,WNW,292,3.1,3.1,48,0.00,,,0.00,WUHU21623XXSP,2013-01-22 08:52:00,
2013-01-22 03:57:00,-2.6,-17.7,29.86,NW,315,0.0,3.8,48,0.00,,,0.00,WUHU21623XXSP,2013-01-22 08:57:00,
2013-01-22 04:02:00,-2.6,-17.7,29.87,WNW,292,2.7,3.8,48,0.00,,,0.00,WUHU21623XXSP,2013-01-22 09:02:00,
2013-01-22 04:07:00,-2.6,-17.7,29.87,WNW,292,6.0,6.0,48,0.00,,,0.00,WUHU21623XXSP,2013-01-22 09:07:00,
2013-01-22 04:12:00,-2.7,-17.8,29.87,NW,315,0.0,6.0,48,0.00,,,0.00,WUHU21623XXSP,2013-01-22 09:12:00,
2013-01-22 04:17:00,-2.9,-18.0,29.87,NNW,337,0.0,3.4,48,0.00,,,0.00,WUHU21623XXSP,2013-01-22 09:17:00,
2013-01-22 04:22:00,-2.9,-18.0,29.87,WNW,292,0.0,2.9,48,0.00,,,0.00,WUHU21623XXSP,2013-01-22 09:22:00,
2013-01-22 04:27:00,-3.1,-18.2,29.87,West,270,0.0,1.3,48,0.00,,,0.00,WUHU21623XXSP,2013-01-22 09:27:00,
2013-01-22 04:32:00,-3.1,-18.2,29.87,West,270,2.5,2.5,48,0.00,,,0.00,WUHU21623XXSP,2013-01-22 09:32:00,
2013-01-22 04:37:00,-3.1,-18.2,29.88,WNW,292,1.3,4.9,48,0.00,,,0.00,WUHU21623XXSP,2013-01-22 09:37:00,
2013-01-22 04:42:00,-3.1,-18.2,29.87,WNW,292,2.0,4.9,48,0.00,,,0.00,WUHU21623XXSP,2013-01-22 09:42:00,
2013-01-22 04:47:00,-3.3,-18.4,29.88,WNW,292,4.7,6.0,48,0.00,,,0.00,WUHU21623XXSP,2013-01-22 09:47:00,
2013-01-22 04:52:00,-3.3,-18.4,29.88,West,270,0.0,6.0,48,0.00,,,0.00,WUHU21623XXSP,2013-01-22 09:52:00,
2013-01-22 04:57:00,-3.3,-18.4,29.88,WNW,292,2.9,2.9,48,0.00,,,0.00,WUHU21623XXSP,2013-01-22 09:57:00,
2013-01-22 05:02:00,-3.3,-18.4,29.88,NW,315,2.0,2.9,48,0.00,,,0.00,WUHU21623XXSP,2013-01-22 10:02:00,
2013-01-22 05:07:00,-3.5,-18.6,29.88,WNW,292,4.9,4.9,48,0.00,,,0.00,WUHU21623XXSP,2013-01-22 10:07:00,
2013-01-22 05:12:00,-3.5,-18.6,29.89,NW,315,2.2,4.9,48,0.00,,,0.00,WUHU21623XXSP,2013-01-22 10:12:00,
2013-01-22 05:17:00,-3.6,-18.7,29.89,West,270,0.0,2.7,48,0.00,,,0.00,WUHU21623XXSP,2013-01-22 10:17:00,
2013-01-22 05:22:00,-3.6,-18.7,29.88,West,270,0.7,2.2,48,0.00,,,0.00,WUHU21623XXSP,2013-01-22 10:22:00,
2013-01-22 05:27:00,-3.8,-18.8,29.89,North,0,0.0,2.2,48,0.00,,,0.00,WUHU21623XXSP,2013-01-22 10:27:00,
2013-01-22 05:32:00,-3.8,-18.8,29.89,WNW,292,1.1,3.8,48,0.00,,,0.00,WUHU21623XXSP,2013-01-22 10:32:00,
2013-01-22 05:37:00,-3.8,-18.8,29.89,NW,315,0.0,3.8,48,0.00,,,0.00,WUHU21623XXSP,2013-01-22 10:37:00,
2013-01-22 05:42:00,-3.8,-18.8,29.90,West,270,1.8,2.0,48,0.00,,,0.00,WUHU21623XXSP,2013-01-22 10:42:00,
2013-01-22 05:47:00,-3.8,-18.8,29.90,WNW,292,2.5,2.9,48,0.00,,,0.00,WUHU21623XXSP,2013-01-22 10:47:00,
2013-01-22 05:52:00,-3.8,-18.8,29.90,WNW,292,0.0,2.9,48,0.00,,,0.00,WUHU21623XXSP,2013-01-22 10:52:00,
2013-01-22 05:57:00,-3.8,-18.8,29.90,WNW,292,0.0,1.3,48,0.00,,,0.00,WUHU21623XXSP,2013-01-22 10:57:00,
2013-01-22 06:02:00,-4.2,-19.2,29.90,WNW,292,0.0,4.3,48,0.00,,,0.00,WUHU21623XXSP,2013-01-22 11:02:00,
2013-01-22 06:07:00,-4.2,-19.2,29.90,North,0,0.0,4.3,48,0.00,,,0.00,WUHU21623XXSP,2013-01-22 11:07:00,
2013-01-22 06:13:00,-4.2,-19.2,29.90,NNW,337,1.8,1.8,48,0.00,,,0.00,WUHU21623XXSP,2013-01-22 11:13:00,
2013-01-22 06:18:00,-4.4,-19.4,29.91,West,270,1.6,1.8,48,0.00,,,0.00,WUHU21623XXSP,2013-01-22 11:18:00,
2013-01-22 06:23:00,-4.4,-19.4,29.91,West,270,1.1,1.6,48,0.00,,,0.00,WUHU21623XXSP,2013-01-22 11:23:00,
2013-01-22 06:28:00,-4.4,-19.4,29.91,West,270,2.7,2.7,48,0.00,,,0.00,WUHU21623XXSP,2013-01-22 11:28:00,
2013-01-22 06:33:00,-4.5,-19.5,29.91,West,270,2.0,2.7,48,0.00,,,0.00,WUHU21623XXSP,2013-01-22 11:33:00,
2013-01-22 06:38:00,-4.4,-19.4,29.91,West,270,0.0,2.7,48,0.00,,,0.00,WUHU21623XXSP,2013-01-22 11:38:00,
2013-01-22 06:43:00,-4.5,-19.5,29.92,West,270,0.0,2.0,48,0.00,,,0.00,WUHU21623XXSP,2013-01-22 11:43:00,
2013-01-22 06:48:00,-4.7,-19.7,29.92,WSW,247,0.0,1.6,48,0.00,,,0.00,WUHU21623XXSP,2013-01-22 11:48:00,
2013-01-22 06:53:00,-4.7,-19.7,29.92,West,270,0.9,2.9,48,0.00,,,0.00,WUHU21623XXSP,2013-01-22 11:53:00,
2013-01-22 06:58:00,-4.7,-19.7,29.92,WSW,247,4.3,4.3,48,0.00,,,0.00,WUHU21623XXSP,2013-01-22 11:58:00,
2013-01-22 07:03:00,-4.9,-19.9,29.92,West,270,0.0,4.3,48,0.00,,,0.00,WUHU21623XXSP,2013-01-22 12:03:00,
2013-01-22 07:08:00,-5.1,-20.0,29.92,West,270,0.0,2.9,48,0.00,,,0.00,WUHU21623XXSP,2013-01-22 12:08:00,
2013-01-22 07:13:00,-4.9,-19.9,29.93,WSW,247,0.0,2.9,48,0.00,,,0.00,WUHU21623XXSP,2013-01-22 12:13:00,
2013-01-22 07:18:00,-4.9,-19.9,29.92,West,270,0.0,2.9,48,0.00,,,0.00,WUHU21623XXSP,2013-01-22 12:18:00,
2013-01-22 07:23:00,-5.1,-20.0,29.92,WSW,247,0.0,0.0,48,0.00,,,0.00,WUHU21623XXSP,2013-01-22 12:23:00,
2013-01-22 07:28:00,-5.1,-20.0,29.93,West,270,0.0,0.0,48,0.00,,,0.00,WUHU21623XXSP,2013-01-22 12:28:00,
2013-01-22 07:33:00,-5.1,-20.0,29.93,West,270,0.0,0.0,48,0.00,,,0.00,WUHU21623XXSP,2013-01-22 12:33:00,
2013-01-22 07:38:00,-5.1,-20.0,29.93,WSW,247,3.8,3.8,48,0.00,,,0.00,WUHU21623XXSP,2013-01-22 12:38:00,
2013-01-22 07:43:00,-5.3,-20.2,29.93,WSW,247,2.0,3.8,48,0.00,,,0.00,WUHU21623XXSP,2013-01-22 12:43:00,
2013-01-22 07:48:00,-5.1,-20.0,29.94,WSW,247,0.0,2.0,48,0.00,,,0.00,WUHU21623XXSP,2013-01-22 12:48:00,
2013-01-22 07:53:00,-5.1,-20.0,29.94,SW,225,0.0,2.0,48,0.00,,,0.00,WUHU21623XXSP,2013-01-22 12:53:00,
2013-01-22 07:58:00,-5.3,-20.2,29.94,WSW,247,3.1,3.1,48,0.00,,,0.00,WUHU21623XXSP,2013-01-22 12:58:00,
2013-01-22 08:03:00,-5.3,-20.2,29.94,West,270,1.1,3.1,48,0.00,,,0.00,WUHU21623XXSP,2013-01-22 13:03:00,
2013-01-22 08:08:00,-5.1,-20.0,29.94,SW,225,0.0,1.8,48,0.00,,,0.00,WUHU21623XXSP,2013-01-22 13:08:00,
2013-01-22 08:13:00,-5.1,-20.0,29.95,West,270,0.0,3.4,48,0.00,,,0.00,WUHU21623XXSP,2013-01-22 13:13:00,
2013-01-22 08:18:00,-5.1,-20.0,29.95,WSW,247,0.0,3.4,48,0.00,,,0.00,WUHU21623XXSP,2013-01-22 13:18:00,
2013-01-22 08:23:00,-4.9,-19.9,29.95,West,270,0.0,1.6,48,0.00,,,0.00,WUHU21623XXSP,2013-01-22 13:23:00,
2013-01-22 08:28:00,-4.5,-19.5,29.95,West,270,0.0,1.6,48,0.00,,,0.00,WUHU21623XXSP,2013-01-22 13:28:00,
2013-01-22 08:34:00,-4.4,-19.4,29.95,WNW,292,0.0,2.7,48,0.00,,,0.00,WUHU21623XXSP,2013-01-22 13:34:00,
2013-01-22 08:39:00,-4.2,-19.2,29.95,WNW,292,3.4,3.4,48,0.00,,,0.00,WUHU21623XXSP,2013-01-22 13:39:00,
2013-01-22 08:44:00,-3.8,-18.8,29.95,West,270,1.1,3.4,48,0.00,,,0.00,WUHU21623XXSP,2013-01-22 13:44:00,
2013-01-22 08:49:00,-3.8,-18.8,29.95,WSW,247,1.6,2.0,48,0.00,,,0.00,WUHU21623XXSP,2013-01-22 13:49:00,
2013-01-22 08:54:00,-3.6,-18.7,29.96,West,270,0.0,3.4,48,0.00,,,0.00,WUHU21623XXSP,2013-01-22 13:54:00,
2013-01-22 08:59:00,-3.3,-18.4,29.96,West,270,3.1,3.6,48,0.00,,,0.00,WUHU21623XXSP,2013-01-22 13:59:00,
2013-01-22 09:04:00,-3.3,-18.4,29.96,West,270,0.0,3.6,48,0.00,,,0.00,WUHU21623XXSP,2013-01-22 14:04:00,
2013-01-22 09:09:00,-3.1,-18.2,29.96,WNW,292,4.0,4.0,48,0.00,,,0.00,WUHU21623XXSP,2013-01-22 14:09:00,
2013-01-22 09:14:00,-2.7,-17.8,29.96,WNW,292,5.1,5.1,48,0.00,,,0.00,WUHU21623XXSP,2013-01-22 14:14:00,
2013-01-22 09:19:00,-2.6,-17.7,29.96,WSW,247,2.7,5.1,48,0.00,,,0.00,WUHU21623XXSP,2013-01-22 14:19:00,
2013-01-22 09:24:00,-2.4,-17.5,29.96,NNW,337,0.0,3.8,48,0.00,,,0.00,WUHU21623XXSP,2013-01-22 14:24:00,
2013-01-22 09:29:00,-2.2,-17.4,29.97,WNW,292,2.9,5.4,48,0.00,,,0.00,WUHU21623XXSP,2013-01-22 14:29:00,
2013-01-22 09:34:00,-2.0,-17.2,29.97,SW,225,2.5,5.4,48,0.00,,,0.00,WUHU21623XXSP,2013-01-22 14:34:00,
2013-01-22 09:39:00,-1.8,-17.0,29.97,WNW,292,0.0,5.4,48,0.00,,,0.00,WUHU21623XXSP,2013-01-22 14:39:00,
2013-01-22 09:44:00,-1.5,-16.7,29.97,WNW,292,3.1,3.6,48,0.00,,,0.00,WUHU21623XXSP,2013-01-22 14:44:00,
2013-01-22 09:49:00,-1.3,-16.5,29.97,WNW,292,3.8,4.7,48,0.00,,,0.00,WUHU21623XXSP,2013-01-22 14:49:00,
2013-01-22 09:54:00,-1.3,-16.5,29.97,WNW,292,3.6,5.6,48,0.00,,,0.00,WUHU21623XXSP,2013-01-22 14:54:00,
2013-01-22 09:59:00,-0.9,-16.2,29.97,NW,315,1.3,5.6,48,0.00,,,0.00,WUHU21623XXSP,2013-01-22 14:59:00,
2013-01-22 10:04:00,-0.8,-16.1,29.97,WNW,292,0.0,5.1,48,0.00,,,0.00,WUHU21623XXSP,2013-01-22 15:04:00,
2013-01-22 10:09:00,-0.4,-15.7,29.97,West,270,0.0,5.1,48,0.00,,,0.00,WUHU21623XXSP,2013-01-22 15:09:00,
2013-01-22 10:14:00,-0.2,-15.5,29.97,WNW,292,2.9,4.5,48,0.00,,,0.00,WUHU21623XXSP,2013-01-22 15:14:00,
2013-01-22 10:19:00,0.1,-15.2,29.97,WNW,292,1.3,4.9,48,0.00,,,0.00,WUHU21623XXSP,2013-01-22 15:19:00,
2013-01-22 10:24:00,0.5,-14.9,29.97,NNW,337,3.4,4.9,48,0.00,,,0.00,WUHU21623XXSP,2013-01-22 15:24:00,
2013-01-22 10:29:00,0.5,-14.9,29.97,NW,315,3.6,4.9,48,0.00,,,0.00,WUHU21623XXSP,2013-01-22 15:29:00,
2013-01-22 10:34:00,1.0,-14.4,29.97,WNW,292,2.9,5.1,48,0.00,,,0.00,WUHU21623XXSP,2013-01-22 15:34:00,
2013-01-22 10:39:00,1.0,-14.4,29.98,WNW,292,0.9,5.1,48,0.00,,,0.00,WUHU21623XXSP,2013-01-22 15:39:00,
2013-01-22 10:44:00,1.6,-13.9,29.97,NNW,337,4.7,4.7,48,0.00,,,0.00,WUHU21623XXSP,2013-01-22 15:44:00,
2013-01-22 10:49:00,1.6,-13.9,29.97,WNW,292,1.3,4.7,48,0.00,,,0.00,WUHU21623XXSP,2013-01-22 15:49:00,
2013-01-22 10:54:00,1.8,-13.7,29.97,NW,315,3.4,6.0,48,0.00,,,0.00,WUHU21623XXSP,2013-01-22 15:54:00,
2013-01-22 10:59:00,2.3,-13.2,29.97,NNW,337,0.0,6.0,48,0.00,,,0.00,WUHU21623XXSP,2013-01-22 15:59:00,
2013-01-22 11:04:00,2.3,-13.2,29.97,NW,315,2.5,5.8,48,0.00,,,0.00,WUHU21623XXSP,2013-01-22 16:04:00,
2013-01-22 11:09:00,2.7,-12.8,29.97,WNW,292,1.6,4.5,48,0.00,,,0.00,WUHU21623XXSP,2013-01-22 16:09:00,
2013-01-22 11:14:00,2.8,-12.7,29.97,West,270,2.9,6.3,48,0.00,,,0.00,WUHU21623XXSP,2013-01-22 16:14:00,
2013-01-22 11:19:00,3.0,-12.6,29.97,WNW,292,0.0,6.3,48,0.00,,,0.00,WUHU21623XXSP,2013-01-22 16:19:00,
2013-01-22 11:24:00,3.4,-12.2,29.97,NW,315,4.9,4.9,48,0.00,,,0.00,WUHU21623XXSP,2013-01-22 16:24:00,
2013-01-22 11:29:00,3.6,-12.0,29.96,West,270,0.0,4.9,48,0.00,,,0.00,WUHU21623XXSP,2013-01-22 16:29:00,
2013-01-22 11:34:00,4.1,-11.5,29.96,NNW,337,0.0,2.7,48,0.00,,,0.00,WUHU21623XXSP,2013-01-22 16:34:00,
2013-01-22 11:39:00,4.5,-11.2,29.96,North,0,5.8,5.8,48,0.00,,,0.00,WUHU21623XXSP,2013-01-22 16:39:00,
2013-01-22 11:44:00,4.3,-11.4,29.96,WNW,292,0.0,5.8,48,0.00,,,0.00,WUHU21623XXSP,2013-01-22 16:44:00,
2013-01-22 11:49:00,4.1,-11.5,29.96,North,0,0.0,4.0,48,0.00,,,0.00,WUHU21623XXSP,2013-01-22 16:49:00,
2013-01-22 11:54:00,3.6,-12.0,29.95,WNW,292,5.6,7.4,48,0.00,,,0.00,WUHU21623XXSP,2013-01-22 16:54:00,
2013-01-22 11:59:00,3.4,-12.2,29.95,WNW,292,6.9,7.4,48,0.00,,,0.00,WUHU21623XXSP,2013-01-22 16:59:00,
2013-01-22 12:04:00,3.2,-12.4,29.95,North,0,5.1,6.9,48,0.00,,,0.00,WUHU21623XXSP,2013-01-22 17:04:00,
2013-01-22 12:09:00,3.4,-12.2,29.95,NW,315,5.4,5.4,48,0.00,,,0.00,WUHU21623XXSP,2013-01-22 17:09:00,
2013-01-22 12:14:00,3.2,-12.4,29.95,NW,315,3.1,6.3,48,0.00,,,0.00,WUHU21623XXSP,2013-01-22 17:14:00,
2013-01-22 12:19:00,3.2,-12.4,29.95,NNW,337,1.1,6.3,48,0.00,,,0.00,WUHU21623XXSP,2013-01-22 17:19:00,
2013-01-22 12:24:00,3.4,-12.2,29.94,West,270,0.0,2.2,48,0.00,,,0.00,WUHU21623XXSP,2013-01-22 17:24:00,
2013-01-22 12:29:00,3.9,-11.7,29.94,NW,315,3.4,5.1,48,0.00,,,0.00,WUHU21623XXSP,2013-01-22 17:29:00,
2013-01-22 12:34:00,4.1,-11.5,29.94,WNW,292,4.3,5.1,48,0.00,,,0.00,WUHU21623XXSP,2013-01-22 17:34:00,
2013-01-22 12:40:00,4.6,-11.1,29.93,WNW,292,4.3,4.5,48,0.00,,,0.00,WUHU21623XXSP,2013-01-22 17:40:00,
2013-01-22 12:45:00,5.2,-10.5,29.93,WNW,292,2.5,4.5,48,0.00,,,0.00,WUHU21623XXSP,2013-01-22 17:45:00,
2013-01-22 12:50:00,5.9,-9.9,29.92,North,0,6.3,6.3,48,0.00,,,0.00,WUHU21623XXSP,2013-01-22 17:50:00,
2013-01-22 12:55:00,6.3,-9.5,29.93,WNW,292,4.7,6.3,48,0.00,,,0.00,WUHU21623XXSP,2013-01-22 17:55:00,
2013-01-22 13:00:00,6.6,-9.2,29.92,WNW,292,2.5,5.8,48,0.00,,,0.00,WUHU21623XXSP,2013-01-22 18:00:00,
2013-01-22 13:05:00,7.0,-8.9,29.92,SW,225,1.1,4.9,48,0.00,,,0.00,WUHU21623XXSP,2013-01-22 18:05:00,
2013-01-22 13:10:00,7.0,-8.9,29.92,West,270,1.8,4.9,48,0.00,,,0.00,WUHU21623XXSP,2013-01-22 18:10:00,
2013-01-22 13:15:00,6.3,-9.5,29.92,WNW,292,2.9,5.4,48,0.00,,,0.00,WUHU21623XXSP,2013-01-22 18:15:00,
2013-01-22 13:20:00,5.7,-10.1,29.92,WSW,247,5.6,5.6,48,0.00,,,0.00,WUHU21623XXSP,2013-01-22 18:20:00,
2013-01-22 13:25:00,5.4,-10.3,29.91,West,270,3.8,5.6,48,0.00,,,0.00,WUHU21623XXSP,2013-01-22 18:25:00,
2013-01-22 13:30:00,5.2,-10.5,29.91,WNW,292,5.6,5.6,48,0.00,,,0.00,WUHU21623XXSP,2013-01-22 18:30:00,
2013-01-22 13:35:00,5.0,-10.7,29.91,West,270,0.7,5.6,48,0.00,,,0.00,WUHU21623XXSP,2013-01-22 18:35:00,
2013-01-22 13:40:00,4.8,-10.9,29.91,WSW,247,0.0,1.3,48,0.00,,,0.00,WUHU21623XXSP,2013-01-22 18:40:00,
2013-01-22 13:45:00,4.8,-10.9,29.91,NNW,337,2.7,2.7,48,0.00,,,0.00,WUHU21623XXSP,2013-01-22 18:45:00,
2013-01-22 13:50:00,5.2,-10.5,29.91,NW,315,6.0,6.0,48,0.00,,,0.00,WUHU21623XXSP,2013-01-22 18:50:00,
2013-01-22 13:55:00,5.2,-10.5,29.91,NNW,337,5.4,6.0,48,0.00,,,0.00,WUHU21623XXSP,2013-01-22 18:55:00,
2013-01-22 14:00:00,5.2,-10.5,29.91,NNW,337,5.4,5.4,48,0.00,,,0.00,WUHU21623XXSP,2013-01-22 19:00:00,
2013-01-22 14:05:00,5.2,-10.5,29.91,WNW,292,6.0,6.0,48,0.00,,,0.00,WUHU21623XXSP,2013-01-22 19:05:00,
2013-01-22 14:10:00,5.5,-10.3,29.91,WNW,292,2.2,6.0,48,0.00,,,0.00,WUHU21623XXSP,2013-01-22 19:10:00,
2013-01-22 14:15:00,6.1,-9.7,29.92,WNW,292,3.4,4.7,48,0.00,,,0.00,WUHU21623XXSP,2013-01-22 19:15:00,
2013-01-22 14:20:00,7.5,-8.4,29.91,SW,225,4.5,4.5,48,0.00,,,0.00,WUHU21623XXSP,2013-01-22 19:20:00,
2013-01-22 14:25:00,7.7,-8.2,29.92,West,270,2.7,4.5,48,0.00,,,0.00,WUHU21623XXSP,2013-01-22 19:25:00,
2013-01-22 14:30:00,8.1,-7.9,29.92,WSW,247,0.0,2.7,48,0.00,,,0.00,WUHU21623XXSP,2013-01-22 19:30:00,
2013-01-22 14:35:00,7.5,-8.4,29.92,NW,315,0.0,3.8,48,0.00,,,0.00,WUHU21623XXSP,2013-01-22 19:35:00,
2013-01-22 14:40:00,7.0,-8.9,29.92,WNW,292,2.9,3.8,48,0.00,,,0.00,WUHU21623XXSP,2013-01-22 19:40:00,
2013-01-22 14:45:00,6.3,-9.5,29.92,NW,315,0.0,2.9,48,0.00,,,0.00,WUHU21623XXSP,2013-01-22 19:45:00,
2013-01-22 14:50:00,6.1,-9.7,29.92,NW,315,0.0,0.0,48,0.00,,,0.00,WUHU21623XXSP,2013-01-22 19:50:00,
2013-01-22 14:55:00,6.3,-9.5,29.92,WSW,247,0.0,0.0,48,0.00,,,0.00,WUHU21623XXSP,2013-01-22 19:55:00,
2013-01-22 15:00:00,7.0,-8.9,29.92,SW,225,0.0,0.0,48,0.00,,,0.00,WUHU21623XXSP,2013-01-22 20:00:00,
2013-01-22 15:05:00,7.2,-8.7,29.92,WNW,292,4.9,4.9,48,0.00,,,0.00,WUHU21623XXSP,2013-01-22 20:05:00,
2013-01-22 15:10:00,7.0,-8.9,29.92,WSW,247,0.0,4.9,48,0.00,,,0.00,WUHU21623XXSP,2013-01-22 20:10:00,
2013-01-22 15:15:00,6.4,-9.4,29.92,WNW,292,2.0,4.0,48,0.00,,,0.00,WUHU21623XXSP,2013-01-22 20:15:00,
2013-01-22 15:20:00,6.3,-9.5,29.92,West,270,0.0,2.0,48,0.00,,,0.00,WUHU21623XXSP,2013-01-22 20:20:00,
2013-01-22 15:25:00,6.4,-9.4,29.92,West,270,0.0,0.0,48,0.00,,,0.00,WUHU21623XXSP,2013-01-22 20:25:00,
2013-01-22 15:30:00,7.0,-8.9,29.92,SW,225,4.3,4.3,48,0.00,,,0.00,WUHU21623XXSP,2013-01-22 20:30:00,
2013-01-22 15:35:00,7.0,-8.9,29.92,NW,315,4.3,7.2,48,0.00,,,0.00,WUHU21623XXSP,2013-01-22 20:35:00,
2013-01-22 15:40:00,7.3,-8.6,29.92,West,270,6.0,7.2,48,0.00,,,0.00,WUHU21623XXSP,2013-01-22 20:40:00,
2013-01-22 15:45:00,7.7,-8.2,29.91,WSW,247,7.2,7.2,48,0.00,,,0.00,WUHU21623XXSP,2013-01-22 20:45:00,
2013-01-22 15:50:00,7.7,-8.2,29.92,WSW,247,2.2,7.2,48,0.00,,,0.00,WUHU21623XXSP,2013-01-22 20:50:00,
2013-01-22 15:55:00,7.7,-8.2,29.91,NNW,337,0.0,8.3,48,0.00,,,0.00,WUHU21623XXSP,2013-01-22 20:55:00,
2013-01-22 16:00:00,8.1,-7.9,29.91,WNW,292,0.0,8.3,48,0.00,,,0.00,WUHU21623XXSP,2013-01-22 21:00:00,
2013-01-22 16:05:00,7.9,-8.0,29.91,WNW,292,1.8,5.6,48,0.00,,,0.00,WUHU21623XXSP,2013-01-22 21:05:00,
2013-01-22 16:10:00,7.5,-8.4,29.91,WNW,292,2.7,2.7,48,0.00,,,0.00,WUHU21623XXSP,2013-01-22 21:10:00,
2013-01-22 16:15:00,7.2,-8.7,29.91,WSW,247,0.0,6.3,48,0.00,,,0.00,WUHU21623XXSP,2013-01-22 21:15:00,
2013-01-22 16:20:00,7.2,-8.7,29.91,West,270,1.3,6.3,48,0.00,,,0.00,WUHU21623XXSP,2013-01-22 21:20:00,
2013-01-22 16:25:00,7.2,-8.7,29.91,SW,225,4.0,4.0,48,0.00,,,0.00,WUHU21623XXSP,2013-01-22 21:25:00,
2013-01-22 16:30:00,7.2,-8.7,29.91,West,270,0.0,4.0,48,0.00,,,0.00,WUHU21623XXSP,2013-01-22 21:30:00,
2013-01-22 16:31:00,7.2,-8.7,29.91,West,270,0.0,4.0,48,0.00,,,0.00,WUHU21623XXSP,2013-01-22 21:31:00,
2013-01-22 16:37:00,7.2,-8.7,29.92,NW,315,0.0,3.1,48,0.00,,,0.00,WUHU21623XXSP,2013-01-22 21:37:00,
2013-01-22 16:42:00,7.2,-8.7,29.92,SW,225,5.6,5.6,48,0.00,,,0.00,WUHU21623XXSP,2013-01-22 21:42:00,
2013-01-22 16:47:00,7.0,-8.9,29.92,WSW,247,4.5,5.6,48,0.00,,,0.00,WUHU21623XXSP,2013-01-22 21:47:00,
2013-01-22 16:52:00,6.4,-9.4,29.91,West,270,0.0,4.5,48,0.00,,,0.00,WUHU21623XXSP,2013-01-22 21:52:00,
2013-01-22 16:57:00,6.1,-9.7,29.92,WSW,247,1.3,2.7,48,0.00,,,0.00,WUHU21623XXSP,2013-01-22 21:57:00,
2013-01-22 17:02:00,5.9,-9.9,29.92,WNW,292,4.5,4.5,48,0.00,,,0.00,WUHU21623XXSP,2013-01-22 22:02:00,
2013-01-22 17:07:00,5.5,-10.3,29.92,WSW,247,0.0,4.5,48,0.00,,,0.00,WUHU21623XXSP,2013-01-22 22:07:00,
2013-01-22 17:12:00,5.4,-10.3,29.92,WNW,292,6.3,6.3,48,0.00,,,0.00,WUHU21623XXSP,2013-01-22 22:12:00,
2013-01-22 17:17:00,5.2,-10.5,29.92,WNW,292,0.0,6.3,48,0.00,,,0.00,WUHU21623XXSP,2013-01-22 22:17:00,
2013-01-22 17:22:00,5.2,-10.5,29.93,West,270,0.0,2.2,48,0.00,,,0.00,WUHU21623XXSP,2013-01-22 22:22:00,
2013-01-22 17:27:00,4.8,-10.9,29.93,WNW,292,0.0,4.0,48,0.00,,,0.00,WUHU21623XXSP,2013-01-22 22:27:00,
2013-01-22 17:32:00,4.8,-10.9,29.93,West,270,0.0,4.0,48,0.00,,,0.00,WUHU21623XXSP,2013-01-22 22:32:00,
2013-01-22 17:37:00,4.8,-10.9,29.93,WNW,292,1.3,2.7,48,0.00,,,0.00,WUHU21623XXSP,2013-01-22 22:37:00,
2013-01-22 17:42:00,4.8,-10.9,29.93,WNW,292,0.0,3.1,48,0.00,,,0.00,WUHU21623XXSP,2013-01-22 22:42:00,
2013-01-22 17:47:00,4.6,-11.1,29.93,WSW,247,0.0,4.3,48,0.00,,,0.00,WUHU21623XXSP,2013-01-22 22:47:00,
2013-01-22 17:52:00,4.6,-11.1,29.93,WNW,292,0.0,4.3,48,0.00,,,0.00,WUHU21623XXSP,2013-01-22 22:52:00,
2013-01-22 17:57:00,4.6,-11.1,29.93,WNW,292,0.0,2.9,48,0.00,,,0.00,WUHU21623XXSP,2013-01-22 22:57:00,
2013-01-22 18:03:00,4.6,-11.1,29.94,WNW,292,0.0,0.0,48,0.46,,,0.46,WUHU21623XXSP,2013-01-22 23:03:00,
2013-01-22 18:08:00,4.5,-11.2,29.94,WNW,292,0.0,0.0,48,0.46,,,0.46,WUHU21623XXSP,2013-01-22 23:08:00,
2013-01-22 18:13:00,4.6,-11.1,29.94,WNW,292,0.0,0.0,48,0.46,,,0.46,WUHU21623XXSP,2013-01-22 23:13:00,
2013-01-22 18:18:00,4.6,-11.1,29.94,WNW,292,0.0,0.0,48,0.46,,,0.46,WUHU21623XXSP,2013-01-22 23:18:00,
2013-01-22 18:23:00,4.5,-11.2,29.94,WNW,292,0.0,0.0,48,0.46,,,0.46,WUHU21623XXSP,2013-01-22 23:23:00,
2013-01-22 18:28:00,4.5,-11.2,29.95,WNW,292,0.0,0.0,48,0.46,,,0.46,WUHU21623XXSP,2013-01-22 23:28:00,
2013-01-22 18:33:00,4.5,-11.2,29.95,WNW,292,0.0,0.0,48,0.46,,,0.46,WUHU21623XXSP,2013-01-22 23:33:00,
2013-01-22 18:38:00,4.5,-11.2,29.95,WNW,292,0.0,0.0,48,0.46,,,0.46,WUHU21623XXSP,2013-01-22 23:38:00,
2013-01-22 18:43:00,4.6,-11.1,29.95,WSW,247,0.0,0.0,48,0.46,,,0.46,WUHU21623XXSP,2013-01-22 23:43:00,
2013-01-22 18:48:00,4.5,-11.2,29.95,West,270,0.0,0.0,48,0.46,,,0.46,WUHU21623XXSP,2013-01-22 23:48:00,
2013-01-22 18:53:00,4.5,-11.2,29.95,West,270,0.0,0.0,48,0.46,,,0.46,WUHU21623XXSP,2013-01-22 23:53:00,
2013-01-22 18:58:00,4.5,-11.2,29.95,West,270,0.0,0.0,48,0.46,,,0.46,WUHU21623XXSP,2013-01-22 23:58:00,
2013-01-22 19:03:00,4.3,-11.4,29.95,West,270,0.0,0.0,48,0.00,,,0.46,WUHU21623XXSP,2013-01-23 00:03:00,
2013-01-22 19:08:00,4.1,-11.5,29.95,West,270,0.0,0.0,48,0.00,,,0.46,WUHU21623XXSP,2013-01-23 00:08:00,
2013-01-22 19:13:00,4.1,-11.5,29.95,NW,315,0.0,0.0,48,0.00,,,0.46,WUHU21623XXSP,2013-01-23 00:13:00,
2013-01-22 19:18:00,3.7,-11.9,29.95,NW,315,0.0,0.0,48,0.00,,,0.46,WUHU21623XXSP,2013-01-23 00:18:00,
2013-01-22 19:23:00,3.6,-12.0,29.95,WSW,247,0.0,0.0,48,0.00,,,0.46,WUHU21623XXSP,2013-01-23 00:23:00,
2013-01-22 19:28:00,3.6,-12.0,29.95,West,270,0.0,0.0,48,0.00,,,0.46,WUHU21623XXSP,2013-01-23 00:28:00,
2013-01-22 19:33:00,3.4,-12.2,29.96,West,270,0.0,0.0,48,0.00,,,0.46,WUHU21623XXSP,2013-01-23 00:33:00,
2013-01-22 19:38:00,3.4,-12.2,29.96,West,270,0.0,0.0,48,0.00,,,0.46,WUHU21623XXSP,2013-01-23 00:38:00,
2013-01-22 19:43:00,3.4,-12.2,29.96,West,270,0.0,0.0,48,0.00,,,0.46,WUHU21623XXSP,2013-01-23 00:43:00,
2013-01-22 19:48:00,3.4,-12.2,29.96,West,270,0.0,0.0,48,0.00,,,0.46,WUHU21623XXSP,2013-01-23 00:48:00,
2013-01-22 19:53:00,2.8,-12.7,29.96,West,270,0.0,0.0,48,0.00,,,0.46,WUHU21623XXSP,2013-01-23 00:53:00,
2013-01-22 19:58:00,2.8,-12.7,29.96,WNW,292,0.0,0.0,48,0.00,,,0.46,WUHU21623XXSP,2013-01-23 00:58:00,
2013-01-22 20:03:00,2.8,-12.7,29.96,WNW,292,0.0,0.0,48,0.00,,,0.46,WUHU21623XXSP,2013-01-23 01:03:00,
2013-01-22 20:08:00,2.8,-12.7,29.96,WNW,292,0.0,0.0,48,0.00,,,0.46,WUHU21623XXSP,2013-01-23 01:08:00,
2013-01-22 20:13:00,2.8,-12.7,29.96,WNW,292,0.0,0.0,48,0.00,,,0.46,WUHU21623XXSP,2013-01-23 01:13:00,
2013-01-22 20:18:00,2.7,-12.8,29.96,WNW,292,0.0,0.0,48,0.00,,,0.46,WUHU21623XXSP,2013-01-23 01:18:00,
2013-01-22 20:23:00,2.8,-12.7,29.96,WNW,292,0.0,0.0,48,0.00,,,0.46,WUHU21623XXSP,2013-01-23 01:23:00,
2013-01-22 20:28:00,2.8,-12.7,29.96,WNW,292,0.0,0.0,48,0.00,,,0.46,WUHU21623XXSP,2013-01-23 01:28:00,
2013-01-22 20:33:00,2.8,-12.7,29.96,WNW,292,0.0,0.0,48,0.00,,,0.46,WUHU21623XXSP,2013-01-23 01:33:00,
2013-01-22 20:38:00,2.8,-12.7,29.96,WNW,292,0.0,0.0,48,0.00,,,0.46,WUHU21623XXSP,2013-01-23 01:38:00,
2013-01-22 20:43:00,2.7,-12.8,29.96,WNW,292,0.0,0.0,48,0.00,,,0.46,WUHU21623XXSP,2013-01-23 01:43:00,
2013-01-22 20:48:00,2.3,-13.2,29.96,WNW,292,0.0,0.0,48,0.00,,,0.46,WUHU21623XXSP,2013-01-23 01:48:00,
2013-01-22 20:53:00,2.3,-13.2,29.96,WNW,292,0.0,0.0,48,0.00,,,0.46,WUHU21623XXSP,2013-01-23 01:53:00,
2013-01-22 20:58:00,2.1,-13.4,29.96,WNW,292,0.0,0.0,48,0.00,,,0.46,WUHU21623XXSP,2013-01-23 01:58:00,
2013-01-22 21:03:00,2.3,-13.2,29.96,WNW,292,0.0,0.0,48,0.00,,,0.46,WUHU21623XXSP,2013-01-23 02:03:00,
2013-01-22 21:08:00,2.3,-13.2,29.96,WNW,292,0.0,0.0,48,0.00,,,0.46,WUHU21623XXSP,2013-01-23 02:08:00,
2013-01-22 21:13:00,2.3,-13.2,29.97,WNW,292,0.0,0.0,48,0.00,,,0.46,WUHU21623XXSP,2013-01-23 02:13:00,
2013-01-22 21:18:00,2.3,-13.2,29.97,WNW,292,0.0,0.0,48,0.00,,,0.46,WUHU21623XXSP,2013-01-23 02:18:00,
2013-01-22 21:23:00,2.3,-13.2,29.97,WNW,292,0.0,0.0,48,0.00,,,0.46,WUHU21623XXSP,2013-01-23 02:23:00,
2013-01-22 21:28:00,2.5,-13.0,29.97,WNW,292,0.0,0.0,48,0.00,,,0.46,WUHU21623XXSP,2013-01-23 02:28:00,
2013-01-22 21:33:00,2.5,-13.0,29.97,WNW,292,0.0,0.0,48,0.00,,,0.46,WUHU21623XXSP,2013-01-23 02:33:00,
2013-01-22 21:39:00,2.7,-12.8,29.97,WNW,292,0.0,0.0,48,0.00,,,0.46,WUHU21623XXSP,2013-01-23 02:39:00,
2013-01-22 21:43:00,2.7,-12.8,29.96,WNW,292,0.0,0.0,48,0.00,,,0.46,WUHU21623XXSP,2013-01-23 02:43:00,
2013-01-22 21:48:00,2.8,-12.7,29.96,WNW,292,0.0,0.0,48,0.00,,,0.46,WUHU21623XXSP,2013-01-23 02:48:00,
2013-01-22 21:54:00,3.0,-12.6,29.96,WNW,292,0.0,0.0,48,0.00,,,0.46,WUHU21623XXSP,2013-01-23 02:54:00,
2013-01-22 21:59:00,3.0,-12.6,29.96,WNW,292,0.0,0.0,48,0.00,,,0.46,WUHU21623XXSP,2013-01-23 02:59:00,
2013-01-22 22:04:00,3.0,-12.6,29.96,WNW,292,0.0,0.0,48,0.00,,,0.46,WUHU21623XXSP,2013-01-23 03:04:00,
2013-01-22 22:09:00,3.2,-12.4,29.96,WNW,292,0.0,0.0,48,0.00,,,0.46,WUHU21623XXSP,2013-01-23 03:09:00,
2013-01-22 22:14:00,3.0,-12.6,29.96,WNW,292,0.0,0.0,48,0.00,,,0.46,WUHU21623XXSP,2013-01-23 03:14:00,
2013-01-22 22:19:00,3.0,-12.6,29.96,WNW,292,0.0,0.0,48,0.00,,,0.46,WUHU21623XXSP,2013-01-23 03:19:00,
2013-01-22 22:24:00,3.2,-12.4,29.96,WNW,292,0.0,0.0,48,0.00,,,0.46,WUHU21623XXSP,2013-01-23 03:24:00,
2013-01-22 22:29:00,3.2,-12.4,29.96,WNW,292,0.0,0.0,48,0.00,,,0.46,WUHU21623XXSP,2013-01-23 03:29:00,
2013-01-22 22:34:00,3.0,-12.6,29.96,WNW,292,0.0,0.0,48,0.00,,,0.46,WUHU21623XXSP,2013-01-23 03:34:00,
2013-01-22 22:39:00,3.0,-12.6,29.96,WNW,292,0.0,0.0,48,0.00,,,0.46,WUHU21623XXSP,2013-01-23 03:39:00,
2013-01-22 22:44:00,3.0,-12.6,29.96,WNW,292,0.0,0.0,48,0.00,,,0.46,WUHU21623XXSP,2013-01-23 03:44:00,
2013-01-22 22:49:00,2.8,-12.7,29.97,WNW,292,0.0,0.0,48,0.00,,,0.46,WUHU21623XXSP,2013-01-23 03:49:00,
2013-01-22 22:54:00,2.8,-12.7,29.96,WNW,292,0.0,0.0,48,0.00,,,0.46,WUHU21623XXSP,2013-01-23 03:54:00,
2013-01-22 22:59:00,2.8,-12.7,29.97,NNW,337,0.0,0.0,48,0.00,,,0.46,WUHU21623XXSP,2013-01-23 03:59:00,
2013-01-22 23:04:00,2.8,-12.7,29.96,NNW,337,0.0,0.0,48,0.00,,,0.46,WUHU21623XXSP,2013-01-23 04:04:00,
2013-01-22 23:09:00,2.8,-12.7,29.96,NNW,337,0.0,0.0,48,0.00,,,0.46,WUHU21623XXSP,2013-01-23 04:09:00,
2013-01-22 23:14:00,2.8,-12.7,29.96,West,270,0.0,0.0,48,0.00,,,0.46,WUHU21623XXSP,2013-01-23 04:14:00,
2013-01-22 23:19:00,3.0,-12.6,29.97,WNW,292,0.0,0.0,48,0.00,,,0.46,WUHU21623XXSP,2013-01-23 04:19:00,
2013-01-22 23:24:00,2.8,-12.7,29.97,West,270,0.0,0.0,48,0.00,,,0.46,WUHU21623XXSP,2013-01-23 04:24:00,
2013-01-22 23:29:00,2.8,-12.7,29.97,WSW,247,0.0,0.0,48,0.00,,,0.46,WUHU21623XXSP,2013-01-23 04:29:00,
2013-01-22 23:34:00,2.8,-12.7,29.97,WNW,292,0.0,0.0,48,0.00,,,0.46,WUHU21623XXSP,2013-01-23 04:34:00,
2013-01-22 23:39:00,2.7,-12.8,29.97,WNW,292,0.0,0.0,48,0.00,,,0.46,WUHU21623XXSP,2013-01-23 04:39:00,
2013-01-22 23:44:00,2.7,-12.8,29.97,NNW,337,0.0,0.0,48,0.00,,,0.46,WUHU21623XXSP,2013-01-23 04:44:00,
2013-01-22 23:49:00,2.5,-13.0,29.97,NW,315,0.0,0.0,48,0.00,,,0.46,WUHU21623XXSP,2013-01-23 04:49:00,
2013-01-22 23:54:00,2.5,-13.0,29.97,NW,315,0.0,0.0,48,0.00,,,0.46,WUHU21623XXSP,2013-01-23 04:54:00,
2013-01-22 23:59:00,2.5,-13.0,29.97,WNW,292,0.0,0.0,48,0.00,,,0.46,WUHU21623XXSP,2013-01-23 04:59:00,